Time;durP1;ratioP1;P1;durP2;ratioP2;P2;SDS_P1;SDS_P2;PMS_P1;PMS_P2;Temp;Humidity;BMP_temperature;BMP_pressure;BME280_temperature;BME280_humidity;BME280_pressure;Samples;Min_cycle;Max_cycle;Signal;HPM_P1;HPM_P2
2022/01/29 00:01:18;;;;;;;80.50;46.13;;;6.80;99.90;;;;;;4969400;28;20054;-73
2022/01/29 00:03:44;;;;;;;83.20;48.67;;;6.80;99.90;;;;;;4968218;28;20050;-73
2022/01/29 00:06:10;;;;;;;88.45;48.65;;;6.80;99.90;;;;;;4968888;28;20050;-73
2022/01/29 00:08:35;;;;;;;81.40;47.97;;;6.80;99.90;;;;;;4967747;28;20126;-73
2022/01/29 00:11:08;;;;;;;90.25;47.83;;;6.90;99.90;;;;;;4953519;28;20077;-73
2022/01/29 00:13:34;;;;;;;93.75;49.85;;;6.80;99.90;;;;;;4967480;28;20054;-73
2022/01/29 00:16:00;;;;;;;93.50;51.03;;;6.90;99.90;;;;;;4969297;28;20068;-73
2022/01/29 00:18:26;;;;;;;85.60;51.40;;;6.90;99.90;;;;;;4969218;28;20049;-73
2022/01/29 00:20:52;;;;;;;98.47;51.20;;;6.90;99.90;;;;;;4968501;28;20134;-73
2022/01/29 00:23:18;;;;;;;96.38;54.05;;;6.90;99.90;;;;;;4984677;28;20090;-72
2022/01/29 00:25:44;;;;;;;109.45;55.28;;;6.90;99.90;;;;;;4968250;28;20101;-73
2022/01/29 00:28:09;;;;;;;95.97;53.65;;;6.90;99.90;;;;;;4968436;28;20058;-73
2022/01/29 00:30:39;;;;;;;89.50;53.13;;;6.80;99.90;;;;;;4969381;28;20142;-73
2022/01/29 00:33:05;;;;;;;98.10;55.50;;;6.90;99.90;;;;;;4983935;28;20058;-73
2022/01/29 00:35:31;;;;;;;101.43;56.13;;;6.80;99.90;;;;;;4984298;28;20062;-73
2022/01/29 00:37:56;;;;;;;98.63;57.38;;;6.90;99.90;;;;;;4967820;28;20523;-72
2022/01/29 00:40:22;;;;;;;104.43;55.70;;;6.90;99.90;;;;;;4963902;28;20038;-73
2022/01/29 00:42:48;;;;;;;107.55;57.10;;;6.90;99.90;;;;;;4983903;28;20085;-73
2022/01/29 00:45:14;;;;;;;116.30;59.20;;;6.80;99.90;;;;;;4968762;28;20048;-73
2022/01/29 00:47:41;;;;;;;97.93;57.47;;;6.80;99.90;;;;;;4984352;28;20049;-73
2022/01/29 00:50:08;;;;;;;114.00;58.67;;;6.80;99.90;;;;;;4966101;28;20111;-73
2022/01/29 00:52:33;;;;;;;100.93;60.80;;;6.80;99.90;;;;;;4969081;28;20050;-72
2022/01/29 00:54:59;;;;;;;106.10;61.33;;;6.80;99.90;;;;;;4968229;28;20113;-73
2022/01/29 00:57:28;;;;;;;104.90;60.75;;;6.80;99.90;;;;;;4983453;28;20045;-72
2022/01/29 00:59:54;;;;;;;117.95;64.88;;;6.80;99.90;;;;;;4984705;28;20055;-72
2022/01/29 01:02:20;;;;;;;103.85;56.67;;;6.80;99.90;;;;;;4967903;28;20121;-73
2022/01/29 01:04:46;;;;;;;118.43;64.80;;;6.80;99.90;;;;;;4964490;28;20051;-72
2022/01/29 01:07:12;;;;;;;123.38;60.88;;;6.70;99.90;;;;;;4965195;28;20063;-73
2022/01/29 01:09:38;;;;;;;105.65;61.65;;;6.70;99.90;;;;;;4968177;28;20381;-73
2022/01/29 01:12:04;;;;;;;109.10;59.50;;;6.70;99.90;;;;;;4969382;28;20079;-73
2022/01/29 01:14:30;;;;;;;105.72;61.78;;;6.70;99.90;;;;;;4983911;28;20457;-73
2022/01/29 01:16:55;;;;;;;124.57;64.65;;;6.80;99.90;;;;;;4967850;28;20051;-72
2022/01/29 01:19:25;;;;;;;107.72;63.08;;;6.80;99.90;;;;;;4976534;28;20039;-73
2022/01/29 01:21:56;;;;;;;111.95;61.83;;;6.70;99.90;;;;;;4983353;28;20487;-73
2022/01/29 01:24:22;;;;;;;93.35;57.67;;;6.70;99.90;;;;;;4968807;28;20079;-73
2022/01/29 01:26:48;;;;;;;108.82;58.95;;;6.70;99.90;;;;;;4978857;28;20087;-73
2022/01/29 01:29:14;;;;;;;105.88;62.92;;;6.70;99.90;;;;;;4963865;28;20074;-73
2022/01/29 01:31:40;;;;;;;112.55;61.97;;;6.70;99.90;;;;;;4951609;28;20042;-73
2022/01/29 01:34:07;;;;;;;107.47;61.50;;;6.70;99.90;;;;;;4967599;28;20046;-72
2022/01/29 01:36:40;;;;;;;102.32;58.80;;;6.70;99.90;;;;;;4965320;28;20447;-72
2022/01/29 01:39:09;;;;;;;101.95;57.97;;;6.70;99.90;;;;;;4965369;28;20061;-72
2022/01/29 01:41:41;;;;;;;110.07;59.30;;;6.70;99.90;;;;;;4983703;28;20122;-72
2022/01/29 01:44:11;;;;;;;95.90;55.67;;;6.70;99.90;;;;;;4966323;28;20144;-72
2022/01/29 01:46:37;;;;;;;110.43;61.03;;;6.80;99.90;;;;;;4982304;28;20106;-73
2022/01/29 01:49:02;;;;;;;100.95;58.35;;;6.70;99.90;;;;;;4983026;28;20130;-73
2022/01/29 01:51:29;;;;;;;96.85;55.15;;;6.80;99.90;;;;;;4967085;28;20137;-73
2022/01/29 01:53:55;;;;;;;105.22;56.17;;;6.80;99.90;;;;;;4968591;28;20443;-72
2022/01/29 01:56:21;;;;;;;114.22;58.80;;;6.70;99.90;;;;;;4967757;28;20161;-73
2022/01/29 01:58:48;;;;;;;96.93;55.88;;;6.80;99.90;;;;;;4981367;28;20181;-72
2022/01/29 02:01:14;;;;;;;95.63;53.40;;;6.80;99.90;;;;;;4969978;28;20086;-72
2022/01/29 02:03:39;;;;;;;97.75;57.58;;;6.80;99.90;;;;;;4986606;28;20057;-72
2022/01/29 02:06:06;;;;;;;89.68;52.40;;;6.80;99.90;;;;;;4974839;28;20051;-72
2022/01/29 02:08:31;;;;;;;90.13;54.35;;;6.80;99.90;;;;;;4953747;28;20085;-73
2022/01/29 02:11:07;;;;;;;96.88;52.47;;;6.80;99.90;;;;;;4987068;28;20079;-72
2022/01/29 02:13:33;;;;;;;100.90;55.15;;;6.80;99.90;;;;;;4986571;28;20616;-72
2022/01/29 02:15:59;;;;;;;103.60;53.88;;;6.80;99.90;;;;;;4971317;28;20079;-73
2022/01/29 02:18:24;;;;;;;100.43;55.78;;;6.80;99.90;;;;;;4972277;28;20419;-73
2022/01/29 02:20:51;;;;;;;92.05;54.78;;;6.80;99.90;;;;;;4987562;28;20043;-72
2022/01/29 02:23:17;;;;;;;90.78;51.13;;;6.80;99.90;;;;;;4969642;28;20047;-72
2022/01/29 02:25:45;;;;;;;100.68;53.83;;;6.80;99.90;;;;;;4970771;28;20122;-72
2022/01/29 02:28:13;;;;;;;100.90;54.28;;;6.80;99.90;;;;;;4970186;28;20051;-73
2022/01/29 02:30:42;;;;;;;117.47;59.05;;;6.80;99.90;;;;;;4971251;28;20047;-73
2022/01/29 02:33:10;;;;;;;;;;;6.90;99.90;;;;;;4987133;28;20043;-72
2022/01/29 02:35:41;;;;;;;114.18;57.38;;;6.90;99.90;;;;;;4971206;28;20470;-72
2022/01/29 02:38:08;;;;;;;112.22;58.38;;;6.80;99.90;;;;;;4986390;28;20436;-72
2022/01/29 02:40:38;;;;;;;110.28;58.45;;;6.80;99.90;;;;;;4954287;28;20047;-72
2022/01/29 02:43:20;;;;;;;118.60;59.35;;;6.90;99.90;;;;;;4969205;28;20106;-72
2022/01/29 02:45:50;;;;;;;110.55;60.95;;;6.90;99.90;;;;;;4985494;28;20093;-73
2022/01/29 02:48:16;;;;;;;121.65;58.67;;;6.90;99.90;;;;;;4970217;28;20051;-72
2022/01/29 02:50:42;;;;;;;107.80;56.08;;;6.90;99.90;;;;;;4970834;28;20121;-72
2022/01/29 02:53:08;;;;;;;115.38;59.58;;;6.90;99.90;;;;;;4971588;28;20102;-72
2022/01/29 02:55:34;;;;;;;106.35;57.38;;;6.90;99.90;;;;;;4970594;28;20070;-72
2022/01/29 02:57:59;;;;;;;120.32;59.83;;;7.00;99.90;;;;;;4970879;28;20046;-72
2022/01/29 03:00:25;;;;;;;117.78;58.28;;;7.00;99.90;;;;;;4972384;28;20047;-72
2022/01/29 03:02:51;;;;;;;104.68;54.15;;;7.00;99.90;;;;;;4971611;28;21287;-73
2022/01/29 03:05:17;;;;;;;97.15;53.00;;;7.00;99.90;;;;;;4984105;28;20039;-73
2022/01/29 03:07:42;;;;;;;122.15;55.13;;;7.10;99.90;;;;;;4985736;28;20137;-72
2022/01/29 03:10:08;;;;;;;114.75;57.08;;;7.10;99.90;;;;;;4971706;28;20038;-72
2022/01/29 03:12:34;;;;;;;113.72;54.13;;;7.10;99.90;;;;;;4987373;28;20668;-72
2022/01/29 03:15:00;;;;;;;113.93;57.80;;;7.10;99.90;;;;;;4966627;28;20116;-73
2022/01/29 03:17:25;;;;;;;106.85;53.67;;;7.10;99.90;;;;;;4961038;28;20397;-72
2022/01/29 03:19:52;;;;;;;112.18;56.85;;;7.10;99.90;;;;;;4992240;28;20061;-73
2022/01/29 03:22:18;;;;;;;107.57;55.20;;;7.10;99.90;;;;;;4975495;28;20500;-72
2022/01/29 03:24:44;;;;;;;112.75;56.53;;;7.10;99.90;;;;;;4971952;28;20043;-72
2022/01/29 03:27:10;;;;;;;116.82;55.88;;;7.10;99.90;;;;;;4969925;28;20050;-73
2022/01/29 03:29:36;;;;;;;115.40;55.90;;;7.10;99.90;;;;;;4987302;28;20126;-72
2022/01/29 03:32:02;;;;;;;99.82;51.30;;;7.20;99.90;;;;;;4969413;28;20146;-72
2022/01/29 03:34:28;;;;;;;107.88;53.00;;;7.20;99.90;;;;;;4971087;28;20378;-72
2022/01/29 03:36:56;;;;;;;100.68;52.40;;;7.20;99.90;;;;;;4971847;28;20058;-73
2022/01/29 03:39:23;;;;;;;107.20;51.73;;;7.20;99.90;;;;;;4985511;28;20055;-73
2022/01/29 03:41:59;;;;;;;123.07;51.10;;;7.20;99.90;;;;;;4969162;28;20674;-73
2022/01/29 03:44:25;;;;;;;96.40;52.05;;;7.30;99.90;;;;;;4971795;28;20046;-73
2022/01/29 03:46:50;;;;;;;111.57;53.13;;;7.30;99.90;;;;;;4969583;28;20077;-73
2022/01/29 03:49:16;;;;;;;90.68;50.35;;;7.30;99.90;;;;;;4971231;28;20050;-72
2022/01/29 03:51:41;;;;;;;94.82;50.17;;;7.30;99.90;;;;;;4983422;28;20053;-72
2022/01/29 03:54:07;;;;;;;103.70;50.83;;;7.30;99.90;;;;;;4969575;28;20049;-72
2022/01/29 03:56:33;;;;;;;79.03;47.05;;;7.40;99.90;;;;;;4980278;28;20042;-73
2022/01/29 03:58:59;;;;;;;109.30;49.70;;;7.40;99.90;;;;;;4968078;28;20076;-73
2022/01/29 04:01:24;;;;;;;94.13;45.78;;;7.40;99.90;;;;;;4952919;28;20043;-73
2022/01/29 04:03:50;;;;;;;83.30;45.78;;;7.40;99.90;;;;;;4985205;28;20141;-73
2022/01/29 04:06:17;;;;;;;93.72;47.95;;;7.50;99.90;;;;;;4968838;28;20092;-73
2022/01/29 04:08:43;;;;;;;87.82;47.35;;;7.50;99.90;;;;;;4970423;28;20469;-72
2022/01/29 04:11:13;;;;;;;86.78;44.58;;;7.50;99.90;;;;;;4984342;28;20105;-72
2022/01/29 04:13:43;;;;;;;80.68;44.67;;;7.50;99.90;;;;;;4964501;28;20050;-73
2022/01/29 04:16:13;;;;;;;96.03;45.08;;;7.60;99.90;;;;;;4971909;28;20096;-73
2022/01/29 04:18:39;;;;;;;85.13;46.92;;;7.60;99.90;;;;;;4974984;28;20155;-73
2022/01/29 04:21:05;;;;;;;86.43;45.28;;;7.60;99.90;;;;;;4968934;28;20085;-73
2022/01/29 04:23:31;;;;;;;85.82;42.63;;;7.60;99.90;;;;;;4970398;28;20503;-73
2022/01/29 04:25:57;;;;;;;93.47;44.85;;;7.60;99.90;;;;;;4984025;28;20047;-73
2022/01/29 04:28:29;;;;;;;92.45;44.58;;;7.60;99.90;;;;;;4984199;28;20039;-73
2022/01/29 04:31:02;;;;;;;86.68;46.53;;;7.60;99.90;;;;;;4968096;28;20046;-73
2022/01/29 04:33:30;;;;;;;82.60;44.95;;;7.60;99.90;;;;;;4969364;28;20039;-73
2022/01/29 04:36:01;;;;;;;83.20;45.83;;;7.60;99.90;;;;;;4968432;28;20058;-73
2022/01/29 04:38:28;;;;;;;89.93;46.90;;;7.70;99.90;;;;;;4983652;28;20058;-73
2022/01/29 04:40:56;;;;;;;92.85;46.10;;;7.70;99.90;;;;;;4969471;28;20046;-73
2022/01/29 04:43:22;;;;;;;86.13;44.10;;;7.70;99.90;;;;;;4969251;28;20614;-73
2022/01/29 04:45:48;;;;;;;82.93;42.67;;;7.70;99.90;;;;;;4983923;28;20369;-73
2022/01/29 04:48:13;;;;;;;79.65;43.55;;;7.70;99.90;;;;;;4969829;28;20078;-73
2022/01/29 04:50:39;;;;;;;83.20;44.38;;;7.70;99.90;;;;;;4968291;28;20105;-73
2022/01/29 04:53:05;;;;;;;89.05;43.25;;;7.70;99.90;;;;;;4969377;28;20140;-73
2022/01/29 04:55:32;;;;;;;75.65;43.33;;;7.70;99.90;;;;;;4968867;28;20113;-73
2022/01/29 04:57:58;;;;;;;71.60;43.17;;;7.70;99.90;;;;;;4983219;28;20054;-72
2022/01/29 05:00:24;;;;;;;84.55;44.58;;;7.80;99.90;;;;;;4984473;28;20377;-72
2022/01/29 05:02:52;;;;;;;74.18;44.13;;;7.80;99.90;;;;;;4977031;28;20377;-73
2022/01/29 05:05:19;;;;;;;74.65;40.78;;;7.80;99.90;;;;;;4984626;28;20426;-72
2022/01/29 05:07:45;;;;;;;73.88;43.50;;;7.80;99.90;;;;;;4968647;28;20083;-73
2022/01/29 05:10:11;;;;;;;87.53;41.80;;;7.80;99.90;;;;;;4969593;28;20042;-73
2022/01/29 05:12:50;;;;;;;83.97;43.03;;;7.80;99.90;;;;;;4983905;28;20047;-73
2022/01/29 05:28:37;;;;;;;73.68;38.65;;;7.80;99.90;;;;;;4969246;28;20487;-72
2022/01/29 05:31:03;;;;;;;66.45;38.92;;;7.80;99.90;;;;;;4970939;28;20053;-73
2022/01/29 05:33:29;;;;;;;91.85;41.05;;;7.90;99.90;;;;;;4973945;28;20125;-73
2022/01/29 05:35:55;;;;;;;79.65;40.53;;;7.80;99.90;;;;;;4970446;28;20049;-73
2022/01/29 05:38:20;;;;;;;67.93;39.58;;;7.90;99.90;;;;;;4972716;28;20047;-73
2022/01/29 05:40:46;;;;;;;74.03;40.58;;;7.90;99.90;;;;;;4971595;28;20035;-73
2022/01/29 05:43:11;;;;;;;67.78;39.80;;;7.90;99.90;;;;;;4972631;28;20062;-73
2022/01/29 05:45:37;;;;;;;74.18;39.78;;;7.90;99.90;;;;;;4972793;28;20617;-73
2022/01/29 05:48:03;;;;;;;79.15;40.92;;;7.90;99.90;;;;;;4973763;28;20062;-72
2022/01/29 05:50:29;;;;;;;73.20;39.72;;;7.90;99.90;;;;;;4965257;28;20517;-73
2022/01/29 05:52:54;;;;;;;72.88;40.63;;;7.90;99.90;;;;;;4982335;28;20133;-72
2022/01/29 05:55:21;;;;;;;68.97;39.40;;;7.90;99.90;;;;;;4973482;28;20046;-72
2022/01/29 05:57:48;;;;;;;70.88;38.30;;;7.90;99.90;;;;;;4972871;28;20488;-73
2022/01/29 06:00:14;;;;;;;67.78;40.15;;;7.90;99.90;;;;;;4986987;28;20055;-73
2022/01/29 06:02:40;;;;;;;63.83;40.80;;;7.90;99.90;;;;;;4972269;28;20039;-72
2022/01/29 06:05:06;;;;;;;77.03;42.20;;;8.00;99.90;;;;;;4970181;28;20049;-71
2022/01/29 06:07:32;;;;;;;72.25;39.38;;;8.00;99.90;;;;;;4955228;28;20062;-72
2022/01/29 06:09:57;;;;;;;67.15;38.42;;;8.00;99.90;;;;;;4985678;28;20038;-72
2022/01/29 06:12:24;;;;;;;83.25;39.38;;;8.00;99.90;;;;;;4981889;28;20431;-72
2022/01/29 06:14:50;;;;;;;69.82;40.35;;;8.00;99.90;;;;;;4968832;28;20055;-72
2022/01/29 06:17:16;;;;;;;67.72;39.13;;;8.00;99.90;;;;;;4972425;28;20035;-72
2022/01/29 06:19:41;;;;;;;61.17;36.90;;;8.00;99.90;;;;;;4969840;28;20800;-72
2022/01/29 06:22:11;;;;;;;68.03;38.90;;;8.00;99.90;;;;;;4972607;28;20082;-72
2022/01/29 06:24:37;;;;;;;67.88;36.88;;;8.00;99.90;;;;;;4972791;28;20047;-72
2022/01/29 06:27:03;;;;;;;61.78;36.22;;;8.00;99.90;;;;;;4982116;28;20515;-72
2022/01/29 06:29:29;;;;;;;62.22;36.03;;;8.10;99.90;;;;;;4971327;28;20046;-72
2022/01/29 06:31:54;;;;;;;80.97;36.92;;;8.10;99.90;;;;;;4971289;28;20043;-72
2022/01/29 06:34:20;;;;;;;66.13;38.50;;;8.10;99.90;;;;;;4973053;28;20047;-72
2022/01/29 06:36:45;;;;;;;72.78;36.33;;;8.10;99.90;;;;;;4970675;28;20493;-72
2022/01/29 06:39:11;;;;;;;58.97;32.88;;;8.10;99.90;;;;;;4972142;28;20612;-72
2022/01/29 06:41:37;;;;;;;57.83;33.08;;;8.10;99.90;;;;;;4987054;28;20051;-72
2022/01/29 06:44:03;;;;;;;60.53;32.72;;;8.10;99.90;;;;;;4985897;28;20043;-72
2022/01/29 06:46:29;;;;;;;52.80;31.20;;;8.10;99.90;;;;;;4972396;28;20523;-72
2022/01/29 06:48:55;;;;;;;63.00;32.28;;;8.20;99.90;;;;;;4971649;28;20035;-72
2022/01/29 06:51:21;;;;;;;52.05;30.50;;;8.20;99.90;;;;;;4971419;28;20062;-72
2022/01/29 06:53:47;;;;;;;47.95;30.83;;;8.20;99.90;;;;;;4971289;28;20063;-72
2022/01/29 06:56:12;;;;;;;58.38;30.13;;;8.20;99.90;;;;;;4988402;28;20412;-72
2022/01/29 06:58:38;;;;;;;56.47;31.33;;;8.20;99.90;;;;;;4987113;28;20407;-71
2022/01/29 07:01:04;;;;;;;53.40;29.38;;;8.30;99.90;;;;;;4972090;28;20046;-72
2022/01/29 07:03:29;;;;;;;53.13;30.25;;;8.30;99.90;;;;;;4987067;28;20051;-72
2022/01/29 07:05:55;;;;;;;42.33;27.13;;;8.30;99.90;;;;;;4987320;28;20489;-72
2022/01/29 07:08:20;;;;;;;39.95;25.77;;;8.30;99.90;;;;;;4967483;28;20055;-72
2022/01/29 07:10:48;;;;;;;50.38;29.52;;;8.30;99.90;;;;;;4967095;28;20443;-72
2022/01/29 07:13:14;;;;;;;49.83;27.83;;;8.30;99.90;;;;;;4985683;28;20467;-72
2022/01/29 07:15:40;;;;;;;43.65;26.58;;;8.30;99.90;;;;;;4973551;28;20039;-72
2022/01/29 07:18:05;;;;;;;44.83;27.50;;;8.30;99.90;;;;;;4971566;28;20423;-72
2022/01/29 07:20:31;;;;;;;45.72;26.23;;;8.40;99.90;;;;;;4984714;28;20129;-72
2022/01/29 07:22:57;;;;;;;52.40;26.63;;;8.40;99.90;;;;;;4987001;28;20050;-71
2022/01/29 07:25:23;;;;;;;45.25;26.58;;;8.40;99.90;;;;;;4971752;28;20846;-72
2022/01/29 07:27:48;;;;;;;53.35;26.55;;;8.40;99.90;;;;;;4986015;28;20038;-72
2022/01/29 07:30:14;;;;;;;47.00;26.30;;;8.40;99.90;;;;;;4971602;28;20042;-71
2022/01/29 07:32:44;;;;;;;43.20;27.50;;;8.40;99.90;;;;;;4970217;28;20058;-72
2022/01/29 07:35:11;;;;;;;55.78;28.08;;;8.50;99.90;;;;;;4969344;28;20042;-72
2022/01/29 07:37:37;;;;;;;43.20;27.17;;;8.40;99.90;;;;;;4970181;28;20174;-72
2022/01/29 07:40:03;;;;;;;45.90;26.90;;;8.50;99.90;;;;;;4987600;28;20535;-72
2022/01/29 07:42:29;;;;;;;47.10;29.42;;;8.40;99.90;;;;;;4970680;28;20072;-72
2022/01/29 07:44:54;;;;;;;49.08;28.95;;;8.50;99.90;;;;;;4971002;28;20718;-72
2022/01/29 07:47:20;;;;;;;49.00;31.75;;;8.40;99.90;;;;;;4969362;28;20482;-72
2022/01/29 07:49:46;;;;;;;51.00;30.33;;;8.50;99.90;;;;;;4968390;28;20062;-72
2022/01/29 07:52:11;;;;;;;44.83;29.15;;;8.40;99.90;;;;;;4985211;28;20051;-72
2022/01/29 07:54:37;;;;;;;54.55;31.35;;;8.40;99.90;;;;;;4952018;28;20053;-72
2022/01/29 07:57:03;;;;;;;42.30;27.50;;;8.40;99.90;;;;;;4984822;28;20046;-71
2022/01/29 07:59:28;;;;;;;44.22;28.83;;;8.40;99.90;;;;;;4954011;28;20090;-72
2022/01/29 08:01:54;;;;;;;46.55;27.02;;;8.40;99.90;;;;;;4985222;28;20047;-73
2022/01/29 08:04:23;;;;;;;46.88;27.55;;;8.40;99.90;;;;;;4969266;28;20046;-73
2022/01/29 08:06:49;;;;;;;46.50;26.58;;;8.40;99.90;;;;;;4984641;28;20055;-73
2022/01/29 08:09:14;;;;;;;49.00;28.65;;;8.40;99.90;;;;;;4963248;28;20093;-73
2022/01/29 08:11:40;;;;;;;50.20;29.63;;;8.40;99.90;;;;;;4990564;28;20121;-72
2022/01/29 08:14:06;;;;;;;43.72;26.98;;;8.40;99.90;;;;;;4986059;28;20052;-72
2022/01/29 08:16:31;;;;;;;42.08;28.08;;;8.30;99.90;;;;;;4967274;28;20488;-72
2022/01/29 08:18:57;;;;;;;47.53;28.75;;;8.30;99.90;;;;;;4984086;28;20042;-72
2022/01/29 08:21:23;;;;;;;55.22;28.83;;;8.40;99.90;;;;;;4984324;28;20398;-72
2022/01/29 08:23:49;;;;;;;43.40;26.90;;;8.40;99.90;;;;;;4985065;28;20518;-71
2022/01/29 08:26:15;;;;;;;45.90;26.15;;;8.40;99.90;;;;;;4968975;28;20045;-72
2022/01/29 08:28:40;;;;;;;44.63;27.00;;;8.40;99.90;;;;;;4969216;28;20558;-72
2022/01/29 08:31:06;;;;;;;48.17;28.23;;;8.40;99.90;;;;;;4953124;28;20058;-72
2022/01/29 08:33:32;;;;;;;47.17;26.60;;;8.50;99.90;;;;;;4951923;28;20058;-72
2022/01/29 08:35:58;;;;;;;51.33;26.95;;;8.50;99.90;;;;;;4984518;28;20046;-72
2022/01/29 08:38:25;;;;;;;45.53;26.38;;;8.50;99.90;;;;;;4967443;28;20055;-72
2022/01/29 08:40:52;;;;;;;36.58;24.42;;;8.60;99.90;;;;;;4983969;28;20090;-72
2022/01/29 08:43:18;;;;;;;40.65;24.08;;;8.60;99.90;;;;;;4967271;28;20508;-72
2022/01/29 08:45:44;;;;;;;35.33;22.50;;;8.60;99.90;;;;;;4968274;28;20117;-72
2022/01/29 08:48:09;;;;;;;41.92;25.52;;;8.60;99.90;;;;;;4968571;28;20452;-72
2022/01/29 08:50:35;;;;;;;37.38;21.63;;;8.60;99.90;;;;;;4966739;28;20456;-71
2022/01/29 08:53:01;;;;;;;37.75;22.40;;;8.60;99.90;;;;;;4968746;28;20043;-72
2022/01/29 08:55:26;;;;;;;39.30;20.60;;;8.70;99.90;;;;;;4961914;28;20078;-73
2022/01/29 08:57:52;;;;;;;32.65;21.15;;;8.70;99.90;;;;;;4968725;28;20047;-72
2022/01/29 09:00:19;;;;;;;35.33;20.65;;;8.70;99.90;;;;;;4961327;28;20049;-71
2022/01/29 09:02:44;;;;;;;24.52;18.73;;;8.70;99.90;;;;;;4965750;28;20054;-72
2022/01/29 09:05:12;;;;;;;35.90;19.10;;;8.70;99.90;;;;;;4958403;28;20830;-71
2022/01/29 09:07:37;;;;;;;30.17;16.63;;;8.80;99.90;;;;;;4960895;28;20042;-71
2022/01/29 09:10:04;;;;;;;34.05;17.00;;;8.80;99.90;;;;;;4966862;28;20051;-71
2022/01/29 09:12:30;;;;;;;21.33;15.13;;;8.80;99.90;;;;;;4963418;28;20046;-70
2022/01/29 09:14:56;;;;;;;25.27;14.95;;;8.90;99.90;;;;;;4965882;28;20047;-71
2022/01/29 09:17:22;;;;;;;26.15;15.02;;;9.00;99.90;;;;;;4971184;28;20518;-71
2022/01/29 09:19:47;;;;;;;22.73;14.27;;;8.90;99.90;;;;;;4965934;28;20039;-71
2022/01/29 09:22:13;;;;;;;26.98;14.98;;;9.00;99.90;;;;;;4965190;28;20047;-70
2022/01/29 09:24:39;;;;;;;22.52;12.90;;;9.00;99.90;;;;;;4967141;28;20039;-70
2022/01/29 09:27:05;;;;;;;21.10;14.68;;;9.00;99.90;;;;;;4966717;28;20738;-71
2022/01/29 09:29:31;;;;;;;28.50;15.77;;;9.00;99.90;;;;;;4967183;28;20035;-72
2022/01/29 09:31:57;;;;;;;33.03;15.15;;;9.10;99.90;;;;;;4973720;28;20062;-70
2022/01/29 09:34:22;;;;;;;23.75;15.02;;;9.10;99.90;;;;;;4981230;28;20046;-71
2022/01/29 09:36:48;;;;;;;27.38;15.45;;;9.10;99.90;;;;;;4967653;28;20066;-72
2022/01/29 09:39:14;;;;;;;20.88;14.15;;;9.10;99.90;;;;;;4980863;28;20047;-71
2022/01/29 09:41:44;;;;;;;19.48;13.18;;;9.10;99.90;;;;;;4964468;28;20047;-73
2022/01/29 09:44:11;;;;;;;24.63;14.27;;;9.20;99.90;;;;;;4967026;28;20170;-71
2022/01/29 09:46:37;;;;;;;32.38;15.60;;;9.20;99.90;;;;;;4966848;28;20563;-71
2022/01/29 09:49:04;;;;;;;35.42;16.90;;;9.20;99.90;;;;;;4984124;28;20055;-71
2022/01/29 09:51:31;;;;;;;23.08;16.52;;;9.20;99.90;;;;;;4967883;28;20046;-71
2022/01/29 09:53:57;;;;;;;27.33;14.77;;;9.30;99.90;;;;;;4980542;28;20566;-71
2022/01/29 09:56:22;;;;;;;31.90;14.73;;;9.30;99.90;;;;;;4958605;28;20097;-71
2022/01/29 09:58:48;;;;;;;22.38;13.85;;;9.30;99.90;;;;;;4962305;28;20046;-71
2022/01/29 10:01:13;;;;;;;30.75;15.30;;;9.30;99.90;;;;;;4965943;28;20058;-70
2022/01/29 10:03:39;;;;;;;20.90;14.43;;;9.30;99.90;;;;;;4964626;28;20038;-72
2022/01/29 10:06:05;;;;;;;32.05;13.63;;;9.30;99.90;;;;;;4966130;28;20701;-71
2022/01/29 10:08:42;;;;;;;22.40;13.90;;;9.30;99.90;;;;;;4966513;28;20455;-71
2022/01/29 10:11:19;;;;;;;22.50;13.83;;;9.40;99.90;;;;;;4963997;28;20456;-71
2022/01/29 10:13:45;;;;;;;20.90;12.93;;;9.40;99.90;;;;;;4962448;28;20312;-71
2022/01/29 10:16:20;;;;;;;18.15;12.32;;;9.40;99.90;;;;;;4969048;28;20042;-72
2022/01/29 10:18:57;;;;;;;19.95;12.85;;;9.40;99.90;;;;;;4967857;28;20050;-72
2022/01/29 10:21:25;;;;;;;17.27;11.38;;;9.50;99.90;;;;;;4971585;28;20050;-71
2022/01/29 10:24:03;;;;;;;24.65;12.90;;;9.50;99.90;;;;;;4966701;28;20105;-72
2022/01/29 10:26:31;;;;;;;22.05;11.32;;;9.50;99.90;;;;;;4965421;28;20109;-72
2022/01/29 10:28:57;;;;;;;17.30;10.43;;;9.60;99.90;;;;;;4964086;28;20046;-72
2022/01/29 10:31:23;;;;;;;21.63;12.73;;;9.50;99.90;;;;;;4970009;28;20065;-70
2022/01/29 10:33:48;;;;;;;15.55;11.40;;;9.60;99.90;;;;;;4986235;28;20520;-70
2022/01/29 10:36:17;;;;;;;19.30;12.07;;;9.60;99.90;;;;;;4969799;28;20130;-70
2022/01/29 10:38:52;;;;;;;;;;;9.70;99.90;;;;;;4969386;28;20050;-71
2022/01/29 10:41:30;;;;;;;21.50;11.82;;;9.60;99.90;;;;;;4967006;28;19930;-70
2022/01/29 10:44:18;;;;;;;21.50;11.20;;;9.70;99.90;;;;;;4967520;28;20057;-71
2022/01/29 10:46:47;;;;;;;22.40;9.77;;;9.70;99.90;;;;;;4969565;28;20122;-71
2022/01/29 10:49:17;;;;;;;;;;;9.70;99.90;;;;;;4960307;28;20242;-70
2022/01/29 10:51:54;;;;;;;14.75;9.32;;;9.70;99.90;;;;;;4967987;28;20013;-71
2022/01/29 10:54:22;;;;;;;19.80;10.52;;;9.70;99.90;;;;;;4968629;28;20067;-71
2022/01/29 10:56:54;;;;;;;18.20;9.48;;;9.70;99.90;;;;;;4986567;28;20045;-71
2022/01/29 10:59:21;;;;;;;15.85;9.82;;;9.70;99.90;;;;;;4965259;28;20476;-71
2022/01/29 11:01:58;;;;;;;20.67;10.30;;;9.80;99.90;;;;;;4969329;28;20050;-71
2022/01/29 11:04:26;;;;;;;13.37;9.10;;;9.80;99.90;;;;;;4974526;28;20081;-71
2022/01/29 11:06:53;;;;;;;;;;;9.80;99.90;;;;;;4970105;28;20329;-71
2022/01/29 11:09:20;;;;;;;38.38;12.18;;;9.80;99.90;;;;;;4968664;28;19922;-71
2022/01/29 11:11:47;;;;;;;20.30;9.60;;;9.80;99.90;;;;;;4959150;28;20055;-71
2022/01/29 11:14:15;;;;;;;19.80;8.50;;;9.80;99.90;;;;;;4967208;28;20081;-70
2022/01/29 11:16:42;;;;;;;18.48;9.13;;;9.80;99.90;;;;;;4973700;28;20050;-71
2022/01/29 11:19:08;;;;;;;15.65;9.00;;;9.90;99.90;;;;;;4974442;28;20840;-70
2022/01/29 11:21:35;;;;;;;19.65;9.70;;;9.90;99.90;;;;;;4970287;28;20531;-71
2022/01/29 11:24:02;;;;;;;14.57;8.93;;;9.80;99.90;;;;;;4970171;28;20070;-70
2022/01/29 11:26:32;;;;;;;13.75;9.70;;;9.90;99.90;;;;;;4984144;28;20046;-71
2022/01/29 11:29:24;;;;;;;14.35;8.30;;;9.80;99.90;;;;;;4968579;28;20046;-70
2022/01/29 11:32:21;;;;;;;19.90;9.23;;;9.90;99.90;;;;;;4969494;28;20053;-70
2022/01/29 11:35:02;;;;;;;24.75;9.73;;;9.80;99.90;;;;;;4969244;28;20423;-70
2022/01/29 11:38:02;;;;;;;19.55;10.15;;;9.80;99.90;;;;;;4965501;28;20561;-72
2022/01/29 11:40:32;;;;;;;18.30;9.93;;;9.80;99.90;;;;;;4963536;28;20957;-70
2022/01/29 11:43:01;;;;;;;18.90;10.18;;;9.80;99.90;;;;;;4968863;28;20938;-70
2022/01/29 11:45:33;;;;;;;26.83;10.88;;;9.80;99.90;;;;;;4970080;28;20173;-71
2022/01/29 11:47:59;;;;;;;15.98;10.32;;;9.80;99.90;;;;;;4969312;28;20471;-71
2022/01/29 11:50:28;;;;;;;24.23;10.10;;;9.80;99.90;;;;;;4954643;28;20139;-72
2022/01/29 11:52:59;;;;;;;11.55;8.23;;;9.90;99.90;;;;;;4948414;28;20048;-69
2022/01/29 11:55:39;;;;;;;20.95;10.43;;;9.90;99.90;;;;;;4918281;29;20043;-69
2022/01/29 11:58:16;;;;;;;14.32;8.13;;;9.90;99.90;;;;;;4931148;29;20056;-72
2022/01/29 12:00:48;;;;;;;15.98;9.13;;;9.90;99.90;;;;;;4948943;28;20043;-71
2022/01/29 12:09:02;;;;;;;15.80;7.90;;;9.90;99.90;;;;;;4949101;29;20298;-71
2022/01/29 12:11:28;;;;;;;24.65;7.25;;;9.90;99.90;;;;;;4949879;29;20051;-71
2022/01/29 12:14:12;;;;;;;15.30;8.45;;;9.90;99.90;;;;;;4949326;28;20398;-71
2022/01/29 12:16:58;;;;;;;19.88;7.88;;;10.00;99.90;;;;;;4936298;29;20054;-70
2022/01/29 12:19:46;;;;;;;13.93;7.22;;;10.00;99.90;;;;;;4949793;28;20047;-71
2022/01/29 12:22:13;;;;;;;13.45;6.28;;;10.00;99.90;;;;;;4942020;28;20051;-70
2022/01/29 12:24:46;;;;;;;14.55;6.88;;;10.00;99.90;;;;;;4950571;28;20047;-71
2022/01/29 12:27:12;;;;;;;23.33;6.95;;;10.10;99.90;;;;;;4932313;29;20051;-70
2022/01/29 12:29:38;;;;;;;13.13;5.75;;;10.00;99.90;;;;;;4949501;28;20050;-70
2022/01/29 12:32:04;;;;;;;11.02;5.95;;;10.10;99.90;;;;;;4950461;28;20432;-70
2022/01/29 12:34:30;;;;;;;14.20;6.47;;;10.10;99.90;;;;;;4950057;28;20054;-70
2022/01/29 12:37:13;;;;;;;10.45;5.90;;;10.10;99.90;;;;;;4940438;28;20179;-71
2022/01/29 12:39:41;;;;;;;16.13;7.43;;;10.20;99.90;;;;;;4946490;28;20035;-71
2022/01/29 12:44:52;;;;;;;11.15;6.18;;;10.20;99.90;;;;;;4946802;29;20055;-71
2022/01/29 12:47:25;;;;;;;;;;;10.30;99.90;;;;;;4927257;29;20051;-71
2022/01/29 12:49:52;;;;;;;18.77;6.50;;;10.30;99.90;;;;;;4956541;28;19965;-71
2022/01/29 12:52:18;;;;;;;14.63;6.95;;;10.30;99.90;;;;;;4963405;28;20054;-71
2022/01/29 12:54:57;;;;;;;13.50;6.63;;;10.30;99.90;;;;;;4964678;28;20070;-71
2022/01/29 12:57:24;;;;;;;13.63;6.55;;;10.30;99.90;;;;;;4965513;28;20574;-71
2022/01/29 12:59:50;;;;;;;17.67;6.30;;;10.40;99.90;;;;;;4966122;28;20042;-71
2022/01/29 13:02:19;;;;;;;21.27;7.28;;;10.40;99.90;;;;;;4969864;28;20047;-71